Time;durP1;ratioP1;P1;durP2;ratioP2;P2;SDS_P1;SDS_P2;PMS_P1;PMS_P2;Temp;Humidity;BMP_temperature;BMP_pressure;BME280_temperature;BME280_humidity;BME280_pressure;Samples;Min_cycle;Max_cycle;Signal;HPM_P1;HPM_P2
2021/06/28 00:01:33;;;;;;;4.32;3.75;;;15.50;96.20;;;;;;3566300;40;20053;-75
2021/06/28 00:03:59;;;;;;;5.20;4.25;;;15.50;97.50;;;;;;3570135;40;20044;-75
2021/06/28 00:06:25;;;;;;;7.20;4.32;;;15.50;96.30;;;;;;3575173;40;20088;-75
2021/06/28 00:08:52;;;;;;;7.40;4.40;;;15.40;96.50;;;;;;3586798;40;20325;-75
2021/06/28 00:11:19;;;;;;;7.60;4.35;;;15.40;96.90;;;;;;3585243;40;20056;-75
2021/06/28 00:13:45;;;;;;;3.38;3.08;;;15.40;96.80;;;;;;3569423;40;20307;-76
2021/06/28 00:16:14;;;;;;;6.53;3.50;;;15.30;96.70;;;;;;3566904;40;20052;-77
2021/06/28 00:18:41;;;;;;;6.63;4.55;;;15.30;97.00;;;;;;3572635;40;20551;-75
2021/06/28 00:21:07;;;;;;;5.63;3.50;;;15.30;96.80;;;;;;3586222;40;20075;-75
2021/06/28 00:23:33;;;;;;;5.85;4.43;;;15.40;97.40;;;;;;3578364;40;20037;-76
2021/06/28 00:26:00;;;;;;;5.05;3.13;;;15.30;97.10;;;;;;3567119;40;20051;-75
2021/06/28 00:28:25;;;;;;;6.55;3.78;;;15.30;97.50;;;;;;3582213;40;20052;-75
2021/06/28 00:30:52;;;;;;;6.93;4.22;;;15.30;97.20;;;;;;3580431;40;20212;-76
2021/06/28 00:33:19;;;;;;;5.65;3.80;;;15.30;98.00;;;;;;3576480;40;20036;-76
2021/06/28 00:35:46;;;;;;;5.30;3.42;;;15.30;97.60;;;;;;3585315;40;20052;-76
2021/06/28 00:38:13;;;;;;;6.72;4.20;;;15.30;98.30;;;;;;3583211;40;20040;-75
2021/06/28 00:40:40;;;;;;;7.20;4.68;;;15.30;97.30;;;;;;3580750;40;20036;-76
2021/06/28 00:43:06;;;;;;;7.95;4.45;;;15.30;97.10;;;;;;3585981;40;20096;-75
2021/06/28 00:45:35;;;;;;;8.50;5.22;;;15.30;97.30;;;;;;3576854;40;20055;-78
2021/06/28 00:48:10;;;;;;;5.50;3.65;;;15.30;97.90;;;;;;3586198;40;20051;-76
2021/06/28 00:50:41;;;;;;;4.85;4.30;;;15.30;97.50;;;;;;3581670;40;20045;-76
2021/06/28 00:53:10;;;;;;;9.98;5.38;;;15.30;97.60;;;;;;3583813;40;20037;-75
2021/06/28 00:55:37;;;;;;;8.30;5.18;;;15.30;98.10;;;;;;3586275;40;20044;-75
2021/06/28 00:58:04;;;;;;;8.82;6.82;;;15.30;98.00;;;;;;3582615;40;20468;-75
2021/06/28 01:00:30;;;;;;;11.52;7.05;;;15.30;98.00;;;;;;3586175;40;20045;-76
2021/06/28 01:02:57;;;;;;;6.60;5.55;;;15.30;98.60;;;;;;3561345;40;20032;-75
2021/06/28 01:05:25;;;;;;;12.00;7.30;;;15.30;98.00;;;;;;3586298;40;20048;-76
2021/06/28 01:07:51;;;;;;;8.52;7.03;;;15.30;97.60;;;;;;3580303;40;20033;-76
2021/06/28 01:10:18;;;;;;;9.05;6.45;;;15.30;97.60;;;;;;3584674;40;20076;-75
2021/06/28 01:12:47;;;;;;;8.75;6.50;;;15.30;97.60;;;;;;3582816;40;20052;-75
2021/06/28 01:15:13;;;;;;;11.15;7.45;;;15.30;97.30;;;;;;3566638;40;20112;-75
2021/06/28 01:17:40;;;;;;;12.90;8.15;;;15.30;98.00;;;;;;3576523;40;20056;-75
2021/06/28 01:20:13;;;;;;;9.55;6.97;;;15.30;98.10;;;;;;3576827;40;20128;-75
2021/06/28 01:22:43;;;;;;;12.52;7.22;;;15.30;97.90;;;;;;3580182;40;20044;-75
2021/06/28 01:25:12;;;;;;;18.70;7.47;;;15.30;97.70;;;;;;3576066;40;20048;-75
2021/06/28 01:27:38;;;;;;;9.88;5.72;;;15.20;97.90;;;;;;3580796;40;20130;-75
2021/06/28 01:30:07;;;;;;;13.32;7.07;;;15.20;97.80;;;;;;3582622;40;20040;-75
2021/06/28 01:32:33;;;;;;;7.88;6.45;;;15.20;98.30;;;;;;3575567;40;20239;-75
2021/06/28 01:34:59;;;;;;;8.82;6.60;;;15.20;97.40;;;;;;3575622;40;20486;-75
2021/06/28 01:37:28;;;;;;;9.57;6.25;;;15.20;97.90;;;;;;3575956;40;20051;-74
2021/06/28 01:39:56;;;;;;;8.23;6.30;;;15.20;97.80;;;;;;3579422;40;20157;-75
2021/06/28 01:42:23;;;;;;;10.20;6.38;;;15.20;98.30;;;;;;3585892;40;20040;-75
2021/06/28 01:44:50;;;;;;;11.38;6.22;;;15.20;97.90;;;;;;3585807;40;20052;-75
2021/06/28 01:47:16;;;;;;;11.30;7.13;;;15.20;98.00;;;;;;3585604;40;20044;-75
2021/06/28 01:49:42;;;;;;;9.70;6.13;;;15.20;98.40;;;;;;3576291;40;20069;-74
2021/06/28 01:52:09;;;;;;;7.72;6.50;;;15.20;98.40;;;;;;3585968;40;20729;-75
2021/06/28 01:54:37;;;;;;;11.02;7.55;;;15.20;98.80;;;;;;3585769;40;20051;-75
2021/06/28 01:57:04;;;;;;;8.32;6.05;;;15.20;98.70;;;;;;3583321;40;20040;-76
2021/06/28 01:59:33;;;;;;;9.65;7.63;;;15.20;98.20;;;;;;3585762;40;20366;-77
2021/06/28 02:02:00;;;;;;;9.38;6.43;;;15.20;98.30;;;;;;3585128;40;20345;-75
2021/06/28 02:04:27;;;;;;;11.35;7.13;;;15.20;98.10;;;;;;3576641;40;20429;-75
2021/06/28 02:06:54;;;;;;;12.57;6.95;;;15.20;98.30;;;;;;3585125;40;20057;-76
2021/06/28 02:09:21;;;;;;;10.82;7.75;;;15.20;98.40;;;;;;3580732;40;20067;-76
2021/06/28 02:11:51;;;;;;;8.18;6.57;;;15.30;99.10;;;;;;3585615;40;20406;-76
2021/06/28 02:14:17;;;;;;;9.95;6.65;;;15.20;98.60;;;;;;3578262;40;20033;-76
2021/06/28 02:16:47;;;;;;;10.82;7.18;;;15.20;98.50;;;;;;3585752;40;20421;-75
2021/06/28 02:19:15;;;;;;;11.07;7.20;;;15.20;98.60;;;;;;3585014;40;20105;-75
2021/06/28 02:21:42;;;;;;;11.20;8.00;;;15.20;98.20;;;;;;3585936;40;20053;-76
2021/06/28 02:24:09;;;;;;;8.02;7.22;;;15.20;98.60;;;;;;3585359;40;20080;-76
2021/06/28 02:26:35;;;;;;;7.40;6.70;;;15.20;98.40;;;;;;3585536;40;20131;-76
2021/06/28 02:29:01;;;;;;;10.45;7.72;;;15.20;99.30;;;;;;3575514;40;20148;-76
2021/06/28 02:31:27;;;;;;;6.63;5.65;;;15.20;98.40;;;;;;3583563;40;20073;-75
2021/06/28 02:33:54;;;;;;;13.80;7.70;;;15.20;98.60;;;;;;3584733;40;20033;-76
2021/06/28 02:36:23;;;;;;;13.40;8.27;;;15.20;98.50;;;;;;3584941;40;20047;-75
2021/06/28 02:38:51;;;;;;;11.63;7.53;;;15.20;98.50;;;;;;3583489;40;20358;-76
2021/06/28 02:41:18;;;;;;;11.35;7.63;;;15.10;97.90;;;;;;3584152;40;20041;-76
2021/06/28 02:43:45;;;;;;;10.10;7.10;;;15.20;98.50;;;;;;3577609;40;20052;-75
2021/06/28 02:46:12;;;;;;;13.55;8.13;;;15.10;98.80;;;;;;3585486;40;20044;-75
2021/06/28 02:48:38;;;;;;;11.45;6.50;;;15.10;99.00;;;;;;3580668;40;20640;-75
2021/06/28 02:51:06;;;;;;;10.85;8.50;;;15.10;98.60;;;;;;3576562;40;20044;-76
2021/06/28 02:53:32;;;;;;;14.35;6.85;;;15.10;99.10;;;;;;3578653;40;20040;-76
2021/06/28 02:56:12;;;;;;;9.95;7.78;;;15.20;98.70;;;;;;3579231;40;20054;-76
2021/06/28 02:58:51;;;;;;;11.13;8.23;;;15.10;99.20;;;;;;3583495;40;20044;-76
2021/06/28 03:01:22;;;;;;;12.95;9.05;;;15.20;99.90;;;;;;3584519;40;20130;-77
2021/06/28 03:03:48;;;;;;;11.85;8.45;;;15.10;99.40;;;;;;3569966;40;20136;-77
2021/06/28 03:06:14;;;;;;;9.57;7.50;;;15.20;99.30;;;;;;3577486;40;20447;-76
2021/06/28 03:08:41;;;;;;;9.15;7.63;;;15.20;99.00;;;;;;3586634;40;20052;-76
2021/06/28 03:11:08;;;;;;;10.80;8.70;;;15.20;99.30;;;;;;3581245;40;20094;-75
2021/06/28 03:13:36;;;;;;;12.65;8.82;;;15.20;99.00;;;;;;3581738;40;20073;-76
2021/06/28 03:16:02;;;;;;;13.32;10.23;;;15.20;99.20;;;;;;3577033;40;20053;-76
2021/06/28 03:18:28;;;;;;;12.75;9.15;;;15.20;99.20;;;;;;3567404;40;20080;-76
2021/06/28 03:20:54;;;;;;;10.98;8.18;;;15.20;99.20;;;;;;3582460;40;20258;-75
2021/06/28 03:23:21;;;;;;;9.82;7.97;;;15.20;99.20;;;;;;3576951;40;20051;-75
2021/06/28 03:25:47;;;;;;;11.80;8.38;;;15.20;99.10;;;;;;3580079;40;20048;-76
2021/06/28 03:28:13;;;;;;;11.98;8.48;;;15.20;98.80;;;;;;3576291;40;20053;-76
2021/06/28 03:30:39;;;;;;;11.60;8.90;;;15.20;99.50;;;;;;3576637;40;20343;-75
2021/06/28 03:33:05;;;;;;;12.80;8.05;;;15.20;99.20;;;;;;3576717;40;20044;-76
2021/06/28 03:35:32;;;;;;;9.52;7.70;;;15.30;98.80;;;;;;3582217;40;20052;-75
2021/06/28 03:37:58;;;;;;;9.70;8.30;;;15.30;99.00;;;;;;3577572;40;20118;-76
2021/06/28 03:40:25;;;;;;;12.43;8.10;;;15.30;99.20;;;;;;3581732;40;20125;-77
2021/06/28 03:42:51;;;;;;;10.60;7.93;;;15.30;99.20;;;;;;3586831;40;20048;-76
2021/06/28 03:45:17;;;;;;;9.80;6.97;;;15.30;99.20;;;;;;3581477;40;20033;-75
2021/06/28 03:47:43;;;;;;;10.75;8.43;;;15.40;98.80;;;;;;3576652;40;20305;-75
2021/06/28 03:50:13;;;;;;;13.20;9.07;;;15.40;99.40;;;;;;3579376;40;20036;-75
2021/06/28 03:52:39;;;;;;;12.75;7.50;;;15.40;99.40;;;;;;3577984;40;20072;-75
2021/06/28 03:55:07;;;;;;;15.45;7.10;;;15.40;99.50;;;;;;3586245;40;20037;-75
2021/06/28 03:57:33;;;;;;;10.52;7.05;;;15.40;99.20;;;;;;3584893;40;20040;-75
2021/06/28 04:00:00;;;;;;;9.00;6.95;;;15.50;99.00;;;;;;3586005;40;20129;-76
2021/06/28 04:02:27;;;;;;;12.50;7.18;;;15.50;99.30;;;;;;3586430;40;20048;-76
2021/06/28 04:04:53;;;;;;;10.05;7.25;;;15.50;99.10;;;;;;3586624;40;20040;-75
2021/06/28 04:07:19;;;;;;;8.18;7.28;;;15.50;98.90;;;;;;3586138;40;20040;-76
2021/06/28 04:09:45;;;;;;;10.20;7.90;;;15.60;99.10;;;;;;3576816;40;20309;-76
2021/06/28 04:12:12;;;;;;;12.57;8.80;;;15.60;99.10;;;;;;3586616;40;20036;-75
2021/06/28 04:14:38;;;;;;;9.75;7.30;;;15.70;99.20;;;;;;3575495;40;20038;-76
2021/06/28 04:17:05;;;;;;;8.90;7.05;;;15.70;98.90;;;;;;3586236;40;20048;-75
2021/06/28 04:19:31;;;;;;;9.65;6.82;;;15.70;98.60;;;;;;3577013;40;20315;-76
2021/06/28 04:21:57;;;;;;;12.57;6.75;;;15.90;98.90;;;;;;3568374;40;20032;-76
2021/06/28 04:24:23;;;;;;;12.55;7.53;;;15.90;99.00;;;;;;3576926;40;20041;-76
2021/06/28 04:26:49;;;;;;;9.00;7.90;;;15.90;99.10;;;;;;3586603;40;20059;-76
2021/06/28 04:29:14;;;;;;;13.43;7.15;;;15.80;98.80;;;;;;3585930;40;20040;-76
2021/06/28 04:31:40;;;;;;;8.43;7.45;;;15.90;98.70;;;;;;3585955;40;20049;-75
2021/06/28 04:34:06;;;;;;;11.02;7.32;;;15.90;99.10;;;;;;3576432;40;20044;-75
2021/06/28 04:36:32;;;;;;;9.68;8.50;;;16.00;98.80;;;;;;3586315;40;20040;-76
2021/06/28 04:38:57;;;;;;;17.45;8.68;;;16.00;98.90;;;;;;3573603;40;20056;-76
2021/06/28 04:41:24;;;;;;;11.95;7.80;;;16.00;99.00;;;;;;3576522;40;20510;-76
2021/06/28 04:43:50;;;;;;;10.32;6.72;;;16.10;98.90;;;;;;3569391;40;20051;-77
2021/06/28 04:46:15;;;;;;;9.25;6.82;;;16.10;98.70;;;;;;3559980;40;20041;-76
2021/06/28 04:48:41;;;;;;;11.70;8.70;;;16.20;98.70;;;;;;3577500;40;20125;-76
2021/06/28 04:51:07;;;;;;;7.82;6.45;;;16.30;98.70;;;;;;3568720;40;20125;-76
2021/06/28 04:53:33;;;;;;;11.60;8.23;;;16.30;98.70;;;;;;3586296;40;20052;-76
2021/06/28 04:55:59;;;;;;;13.52;7.68;;;16.30;98.80;;;;;;3586203;40;20041;-76
2021/06/28 04:58:25;;;;;;;9.38;8.48;;;16.30;98.60;;;;;;3583872;40;20051;-75
2021/06/28 05:00:50;;;;;;;14.38;8.77;;;16.30;98.80;;;;;;3576437;40;20448;-76
2021/06/28 05:03:16;;;;;;;14.15;7.90;;;16.40;98.60;;;;;;3576799;40;20270;-76
2021/06/28 05:05:42;;;;;;;9.43;7.18;;;16.40;98.70;;;;;;3585589;40;20044;-77
2021/06/28 05:08:08;;;;;;;11.40;7.57;;;16.50;98.60;;;;;;3581125;40;20056;-76
2021/06/28 05:10:34;;;;;;;12.10;8.95;;;16.50;98.70;;;;;;3570042;40;20234;-76
2021/06/28 05:13:00;;;;;;;7.85;7.00;;;16.70;98.70;;;;;;3583475;40;20060;-76
2021/06/28 05:15:26;;;;;;;13.45;8.52;;;16.70;98.40;;;;;;3585389;40;20029;-76
2021/06/28 05:17:52;;;;;;;10.43;6.93;;;16.70;98.60;;;;;;3585660;40;20130;-76
2021/06/28 05:20:17;;;;;;;13.35;8.75;;;16.70;98.40;;;;;;3582572;40;20221;-76
2021/06/28 05:22:43;;;;;;;8.02;7.28;;;16.70;98.30;;;;;;3582703;40;20048;-76
2021/06/28 05:25:11;;;;;;;14.85;7.72;;;16.80;98.30;;;;;;3571497;40;20095;-76
2021/06/28 05:27:37;;;;;;;13.43;7.70;;;16.80;98.40;;;;;;3583888;40;20040;-76
2021/06/28 05:30:08;;;;;;;13.45;7.47;;;16.80;98.30;;;;;;3572035;40;20047;-77
2021/06/28 05:32:34;;;;;;;10.68;7.40;;;16.80;98.30;;;;;;3574365;40;20142;-76
2021/06/28 05:35:00;;;;;;;12.85;8.07;;;16.90;98.60;;;;;;3582158;40;20045;-76
2021/06/28 05:37:26;;;;;;;14.57;7.75;;;16.80;98.50;;;;;;3584666;40;20298;-76
2021/06/28 05:39:52;;;;;;;9.93;6.50;;;16.90;98.50;;;;;;3580771;40;20043;-75
2021/06/28 05:42:19;;;;;;;10.63;7.13;;;16.90;98.40;;;;;;3585076;40;20040;-77
2021/06/28 05:44:45;;;;;;;9.95;7.00;;;17.00;98.40;;;;;;3575858;40;20040;-77
2021/06/28 05:47:12;;;;;;;10.30;6.68;;;16.90;98.40;;;;;;3581856;40;20049;-76
2021/06/28 05:49:39;;;;;;;9.20;8.02;;;17.00;98.30;;;;;;3565164;40;20048;-76
2021/06/28 05:52:06;;;;;;;7.30;6.40;;;17.10;98.40;;;;;;3580126;40;20036;-78
2021/06/28 05:54:32;;;;;;;8.60;7.25;;;17.20;98.40;;;;;;3583246;40;20100;-78
2021/06/28 05:56:58;;;;;;;10.38;6.97;;;17.20;98.40;;;;;;3581344;40;20040;-78
2021/06/28 05:59:24;;;;;;;9.15;5.97;;;17.20;98.30;;;;;;3583765;40;20047;-78
2021/06/28 06:01:50;;;;;;;9.10;7.57;;;17.30;98.30;;;;;;3574228;40;20319;-77
2021/06/28 06:04:16;;;;;;;10.65;8.25;;;17.30;98.30;;;;;;3584481;40;20069;-78
2021/06/28 06:06:42;;;;;;;10.30;7.22;;;17.40;98.20;;;;;;3584905;40;20052;-77
2021/06/28 06:09:08;;;;;;;8.82;7.82;;;17.40;98.30;;;;;;3584538;40;20159;-77
2021/06/28 06:11:35;;;;;;;10.80;8.68;;;17.50;98.20;;;;;;3582249;40;20056;-78
2021/06/28 06:14:00;;;;;;;8.27;6.05;;;17.50;98.10;;;;;;3580619;40;20235;-77
2021/06/28 06:16:26;;;;;;;11.77;7.80;;;17.60;98.20;;;;;;3579445;40;20559;-78
2021/06/28 06:18:53;;;;;;;12.75;7.70;;;17.60;98.20;;;;;;3573192;40;20041;-78
2021/06/28 06:21:23;;;;;;;9.88;6.88;;;17.60;98.10;;;;;;3584279;40;20033;-78
2021/06/28 06:23:51;;;;;;;8.60;7.10;;;17.70;98.10;;;;;;3584972;40;20117;-78
2021/06/28 06:26:17;;;;;;;8.82;7.60;;;17.80;98.10;;;;;;3585370;40;20044;-77
2021/06/28 06:28:43;;;;;;;10.65;7.07;;;17.80;98.10;;;;;;3586642;40;20384;-77
2021/06/28 06:31:09;;;;;;;13.80;8.43;;;17.90;98.10;;;;;;3583596;40;20125;-77
2021/06/28 06:33:35;;;;;;;8.00;5.78;;;17.90;98.20;;;;;;3584388;40;20040;-76
2021/06/28 06:36:01;;;;;;;9.40;7.20;;;18.00;98.00;;;;;;3576478;40;20600;-77
2021/06/28 06:38:27;;;;;;;7.50;6.57;;;18.00;98.00;;;;;;3584007;40;20049;-77
2021/06/28 06:40:53;;;;;;;10.35;6.57;;;18.10;97.90;;;;;;3585355;40;20049;-76
2021/06/28 06:43:22;;;;;;;7.03;6.32;;;18.20;97.90;;;;;;3567426;40;20092;-77
2021/06/28 06:45:47;;;;;;;9.23;7.30;;;18.20;97.90;;;;;;3582376;40;20033;-75
2021/06/28 06:48:13;;;;;;;7.75;5.78;;;18.30;97.70;;;;;;3583060;40;20033;-76
2021/06/28 06:50:40;;;;;;;9.70;7.55;;;18.40;97.60;;;;;;3582962;40;20047;-76
2021/06/28 06:53:06;;;;;;;11.77;7.63;;;18.50;97.60;;;;;;3584671;40;20276;-76
2021/06/28 06:55:34;;;;;;;10.95;6.38;;;18.70;97.50;;;;;;3562809;40;20040;-76
2021/06/28 06:58:10;;;;;;;8.82;7.13;;;19.00;97.40;;;;;;3585157;40;20052;-76
2021/06/28 07:00:56;;;;;;;7.82;7.13;;;19.10;96.80;;;;;;3578234;40;20040;-76
2021/06/28 07:03:22;;;;;;;7.80;7.00;;;19.30;96.80;;;;;;3576726;40;20438;-76
2021/06/28 07:05:48;;;;;;;9.10;8.20;;;19.50;96.70;;;;;;3586964;40;20304;-76
2021/06/28 07:08:15;;;;;;;8.43;6.50;;;19.60;96.40;;;;;;3583209;40;20037;-76
2021/06/28 07:10:43;;;;;;;8.48;6.95;;;19.80;96.10;;;;;;3563489;40;20040;-76
2021/06/28 07:13:09;;;;;;;8.25;7.45;;;19.90;96.30;;;;;;3584123;40;20045;-76
2021/06/28 07:15:35;;;;;;;7.93;7.22;;;20.00;95.90;;;;;;3582834;40;20053;-78
2021/06/28 07:18:00;;;;;;;10.35;7.55;;;20.10;95.50;;;;;;3575573;40;20126;-77
2021/06/28 07:20:26;;;;;;;8.35;7.20;;;20.10;95.70;;;;;;3584667;40;20051;-76
2021/06/28 07:22:53;;;;;;;8.02;6.65;;;20.30;95.50;;;;;;3585293;40;20579;-76
2021/06/28 07:25:21;;;;;;;9.30;8.13;;;20.50;95.40;;;;;;3585836;40;20056;-77
2021/06/28 07:27:48;;;;;;;8.77;7.38;;;20.60;95.00;;;;;;3586323;40;20077;-77
2021/06/28 07:30:17;;;;;;;10.77;8.07;;;20.80;94.80;;;;;;3567615;40;20405;-76
2021/06/28 07:32:42;;;;;;;7.97;6.82;;;21.00;94.50;;;;;;3574165;40;20040;-77
2021/06/28 07:35:10;;;;;;;7.15;6.32;;;21.10;94.50;;;;;;3585148;40;20054;-76
2021/06/28 07:37:38;;;;;;;8.93;6.95;;;21.20;94.70;;;;;;3586362;40;20138;-77
2021/06/28 07:40:09;;;;;;;9.73;7.70;;;21.30;94.60;;;;;;3582296;40;20040;-76
2021/06/28 07:42:35;;;;;;;10.07;8.40;;;21.30;94.40;;;;;;3583233;40;20044;-76
2021/06/28 07:45:03;;;;;;;8.10;7.25;;;21.20;94.00;;;;;;3581701;40;20051;-76
2021/06/28 07:47:30;;;;;;;7.75;7.05;;;21.20;94.50;;;;;;3583643;40;20040;-76
2021/06/28 07:49:58;;;;;;;13.07;8.00;;;21.20;94.70;;;;;;3583310;40;20125;-76
2021/06/28 07:52:25;;;;;;;7.70;6.90;;;21.40;94.70;;;;;;3575219;40;20051;-75
2021/06/28 07:54:51;;;;;;;9.57;7.53;;;21.50;94.40;;;;;;3585145;40;20300;-76
2021/06/28 07:57:18;;;;;;;9.75;7.85;;;21.60;94.40;;;;;;3584697;40;20044;-75
2021/06/28 07:59:43;;;;;;;8.27;7.47;;;21.60;94.40;;;;;;3576830;40;20061;-76
2021/06/28 08:02:09;;;;;;;9.30;8.40;;;21.60;94.10;;;;;;3585958;40;20158;-77
2021/06/28 08:04:35;;;;;;;8.23;7.25;;;21.60;94.00;;;;;;3583368;40;20162;-77
2021/06/28 08:07:01;;;;;;;7.18;6.57;;;21.70;94.40;;;;;;3572957;40;20366;-76
2021/06/28 08:09:27;;;;;;;8.55;7.70;;;21.90;94.30;;;;;;3582699;40;20076;-77
2021/06/28 08:11:57;;;;;;;8.75;7.85;;;22.20;93.50;;;;;;3574920;40;20044;-76
2021/06/28 08:14:23;;;;;;;10.75;8.20;;;22.20;93.40;;;;;;3580249;40;20057;-77
2021/06/28 08:16:48;;;;;;;9.55;8.75;;;22.30;92.90;;;;;;3585063;40;20132;-76
2021/06/28 08:19:14;;;;;;;10.77;7.93;;;22.30;92.90;;;;;;3574841;40;20480;-76
2021/06/28 08:21:40;;;;;;;8.18;7.22;;;22.40;93.20;;;;;;3576154;40;20036;-76
2021/06/28 08:24:08;;;;;;;10.23;9.02;;;22.60;93.40;;;;;;3585537;40;20036;-76
2021/06/28 08:26:35;;;;;;;8.27;7.03;;;22.70;92.70;;;;;;3583101;40;20045;-76
2021/06/28 08:29:03;;;;;;;9.77;7.82;;;22.80;93.00;;;;;;3582319;40;20040;-77
2021/06/28 08:31:30;;;;;;;10.73;8.98;;;23.10;93.10;;;;;;3581938;40;20102;-78
2021/06/28 08:33:56;;;;;;;10.90;8.23;;;23.30;92.20;;;;;;3585819;40;20320;-76
2021/06/28 08:36:22;;;;;;;9.10;7.90;;;23.30;92.00;;;;;;3575925;40;20052;-76
2021/06/28 08:38:48;;;;;;;9.23;8.27;;;23.30;91.20;;;;;;3580406;40;20513;-76
2021/06/28 08:41:16;;;;;;;9.23;8.00;;;23.30;91.80;;;;;;3581250;40;20404;-77
2021/06/28 08:43:46;;;;;;;9.85;7.40;;;23.50;92.10;;;;;;3582149;40;20227;-77
2021/06/28 08:46:14;;;;;;;7.95;7.30;;;23.70;92.20;;;;;;3584021;40;20040;-77
2021/06/28 08:48:41;;;;;;;8.43;7.72;;;24.00;91.80;;;;;;3583146;40;20041;-76
2021/06/28 08:51:07;;;;;;;9.48;8.55;;;24.30;91.40;;;;;;3584864;40;20055;-77
2021/06/28 08:53:34;;;;;;;8.65;7.22;;;24.70;90.80;;;;;;3575290;40;20243;-77
2021/06/28 08:56:07;;;;;;;9.13;8.23;;;25.00;90.40;;;;;;3585599;40;20053;-77
2021/06/28 08:58:39;;;;;;;11.35;9.27;;;25.20;89.20;;;;;;3584368;40;20040;-77
2021/06/28 09:01:06;;;;;;;8.75;7.80;;;25.50;89.40;;;;;;3572208;40;20047;-76
2021/06/28 09:03:33;;;;;;;8.40;7.60;;;25.70;87.30;;;;;;3582249;40;20040;-76
2021/06/28 09:06:09;;;;;;;9.07;7.25;;;25.60;85.90;;;;;;3582439;40;20040;-77
2021/06/28 09:08:51;;;;;;;8.85;7.95;;;25.50;87.80;;;;;;3582836;40;20043;-77
2021/06/28 09:11:18;;;;;;;6.78;6.18;;;25.40;85.30;;;;;;3577727;40;20047;-76
2021/06/28 09:13:46;;;;;;;8.63;6.60;;;25.30;86.20;;;;;;3581307;40;20041;-76
2021/06/28 09:16:24;;;;;;;6.50;5.88;;;25.20;85.90;;;;;;3578523;40;20040;-76
2021/06/28 09:18:53;;;;;;;8.13;7.35;;;25.20;88.60;;;;;;3585272;40;20048;-76
2021/06/28 09:21:27;;;;;;;8.68;7.45;;;25.30;86.30;;;;;;3585724;40;20047;-76
2021/06/28 09:23:53;;;;;;;8.48;6.63;;;25.30;83.10;;;;;;3582276;40;20048;-77
2021/06/28 09:26:27;;;;;;;7.68;6.97;;;25.40;88.10;;;;;;3581173;40;20583;-77
2021/06/28 09:28:56;;;;;;;9.13;7.43;;;25.60;87.30;;;;;;3574536;40;20331;-76
2021/06/28 09:31:35;;;;;;;8.00;7.28;;;25.70;85.00;;;;;;3580461;40;20052;-77
2021/06/28 09:34:19;;;;;;;7.25;6.55;;;25.60;79.50;;;;;;3581654;40;20331;-76
2021/06/28 09:36:57;;;;;;;6.47;5.88;;;25.70;78.10;;;;;;3580497;40;20041;-76
2021/06/28 09:39:36;;;;;;;6.15;5.63;;;25.60;82.80;;;;;;3580991;40;20048;-76
2021/06/28 09:42:08;;;;;;;6.45;5.93;;;25.90;85.70;;;;;;3571403;40;20044;-76
2021/06/28 09:44:37;;;;;;;6.47;6.03;;;26.20;83.90;;;;;;3584179;40;20447;-76
2021/06/28 09:47:10;;;;;;;6.75;6.15;;;26.40;85.50;;;;;;3581789;40;20539;-76
2021/06/28 09:49:37;;;;;;;8.30;7.45;;;26.50;83.70;;;;;;3576031;40;20032;-76
2021/06/28 09:52:05;;;;;;;7.28;6.65;;;26.50;83.90;;;;;;3584560;40;20052;-76
2021/06/28 09:54:34;;;;;;;5.32;4.93;;;26.50;81.50;;;;;;3585284;40;20232;-78
2021/06/28 09:57:00;;;;;;;6.97;6.47;;;26.40;83.70;;;;;;3580263;40;20097;-78
2021/06/28 09:59:31;;;;;;;7.38;6.88;;;26.50;84.40;;;;;;3582136;40;20632;-77
2021/06/28 10:02:25;;;;;;;5.60;5.03;;;26.80;81.30;;;;;;3581597;40;20072;-76
2021/06/28 10:05:23;;;;;;;6.07;5.47;;;26.80;75.00;;;;;;3572542;40;20121;-77
2021/06/28 10:07:49;;;;;;;6.47;6.05;;;26.90;78.40;;;;;;3583615;40;20033;-77
2021/06/28 10:10:29;;;;;;;6.63;6.13;;;27.10;83.90;;;;;;3574325;40;20282;-77
2021/06/28 10:12:59;;;;;;;9.65;8.43;;;27.30;80.20;;;;;;3570988;40;20044;-77
2021/06/28 10:15:28;;;;;;;9.38;7.82;;;27.60;76.80;;;;;;3584932;40;20425;-77
2021/06/28 10:17:56;;;;;;;6.50;5.88;;;27.60;81.80;;;;;;3585553;40;20145;-77
2021/06/28 10:20:26;;;;;;;5.85;5.35;;;27.60;81.70;;;;;;3572803;40;20049;-76
2021/06/28 10:22:53;;;;;;;11.88;5.65;;;27.50;79.50;;;;;;3570937;40;20033;-77
2021/06/28 10:25:21;;;;;;;5.72;4.75;;;27.60;84.00;;;;;;3573942;40;20048;-76
2021/06/28 10:27:47;;;;;;;5.40;5.05;;;27.80;82.60;;;;;;3581452;40;20044;-77
2021/06/28 10:30:16;;;;;;;4.10;3.70;;;28.00;81.30;;;;;;3571162;40;20308;-77
2021/06/28 10:32:45;;;;;;;5.53;5.03;;;28.00;81.80;;;;;;3581079;40;20051;-76
2021/06/28 10:35:15;;;;;;;4.93;4.47;;;28.10;81.10;;;;;;3580419;40;20273;-79
2021/06/28 10:37:47;;;;;;;6.38;5.50;;;28.10;80.40;;;;;;3574085;40;20129;-76
2021/06/28 10:40:16;;;;;;;5.68;5.28;;;28.10;77.40;;;;;;3579669;40;20043;-76
2021/06/28 10:42:48;;;;;;;4.63;4.25;;;28.00;78.20;;;;;;3583950;40;20040;-76
2021/06/28 10:45:16;;;;;;;4.25;3.90;;;27.80;79.10;;;;;;3573819;40;20099;-76
2021/06/28 10:48:06;;;;;;;6.85;6.25;;;27.80;79.30;;;;;;3584661;40;20040;-76
2021/06/28 10:50:51;;;;;;;6.53;5.93;;;27.70;72.20;;;;;;3569512;40;20130;-76
2021/06/28 10:53:38;;;;;;;4.68;4.28;;;27.70;73.40;;;;;;3581182;40;20230;-76
2021/06/28 10:56:28;;;;;;;5.10;4.80;;;27.70;79.70;;;;;;3572402;40;20121;-77
2021/06/28 10:59:05;;;;;;;4.82;4.50;;;27.80;71.30;;;;;;3572522;40;20044;-77
2021/06/28 11:01:37;;;;;;;6.30;5.78;;;27.70;74.70;;;;;;3583242;40;20216;-77
2021/06/28 11:04:05;;;;;;;5.57;4.00;;;27.50;75.10;;;;;;3580602;40;20113;-77
2021/06/28 11:06:32;;;;;;;5.18;4.78;;;27.30;79.20;;;;;;3584694;40;20232;-77
2021/06/28 11:09:08;;;;;;;4.65;4.35;;;27.10;78.60;;;;;;3584943;40;20059;-78
2021/06/28 11:11:43;;;;;;;5.80;5.40;;;27.20;76.00;;;;;;3586640;40;20047;-77
2021/06/28 11:14:30;;;;;;;5.78;5.38;;;27.30;75.00;;;;;;3582573;40;20091;-78
2021/06/28 11:17:07;;;;;;;11.52;10.52;;;27.50;78.50;;;;;;3578197;40;20032;-77
2021/06/28 11:22:44;;;;;;;12.30;11.00;;;27.30;78.90;;;;;;3583244;40;20036;-78
2021/06/28 11:25:13;;;;;;;9.45;8.48;;;27.30;78.60;;;;;;3579979;40;20428;-78
2021/06/28 11:27:45;;;;;;;10.73;9.02;;;27.60;82.90;;;;;;3583706;40;20041;-78
2021/06/28 11:30:14;;;;;;;;;;;27.80;80.90;;;;;;3583414;40;20040;-78
2021/06/28 11:33:09;;;;;;;13.10;8.05;;;28.00;79.30;;;;;;3574317;40;20006;-77
2021/06/28 11:35:46;;;;;;;7.93;6.50;;;28.30;78.30;;;;;;3584814;40;20443;-78
2021/06/28 11:38:30;;;;;;;7.68;6.97;;;28.60;78.70;;;;;;3583630;40;20106;-78
2021/06/28 11:41:08;;;;;;;10.10;7.82;;;28.70;80.10;;;;;;3583884;40;20103;-78
2021/06/28 11:43:44;;;;;;;8.10;6.25;;;28.50;77.10;;;;;;3585669;40;20037;-78
2021/06/28 11:46:18;;;;;;;10.07;6.38;;;28.40;78.80;;;;;;3576623;40;20032;-78
2021/06/28 11:48:54;;;;;;;10.18;5.53;;;28.30;81.30;;;;;;3583339;40;20073;-78
2021/06/28 11:51:25;;;;;;;8.05;6.82;;;28.50;81.10;;;;;;3578190;40;20526;-78
2021/06/28 11:54:03;;;;;;;9.60;6.88;;;28.60;81.00;;;;;;3570465;40;20084;-78
2021/06/28 11:56:34;;;;;;;10.15;5.75;;;28.50;79.50;;;;;;3584333;40;20055;-77
2021/06/28 11:59:11;;;;;;;10.50;7.85;;;28.40;80.60;;;;;;3572567;40;20055;-78
2021/06/28 12:01:40;;;;;;;8.82;6.32;;;28.40;79.40;;;;;;3575747;40;20315;-78
2021/06/28 12:04:08;;;;;;;13.02;6.47;;;28.30;81.30;;;;;;3584460;40;20155;-78
2021/06/28 12:06:37;;;;;;;10.60;7.05;;;28.40;81.70;;;;;;3585711;40;20330;-78
2021/06/28 12:09:15;;;;;;;8.73;6.18;;;28.20;80.40;;;;;;3576193;40;20155;-78
2021/06/28 12:11:53;;;;;;;12.15;8.02;;;28.00;82.00;;;;;;3582979;40;20239;-78
2021/06/28 12:14:38;;;;;;;10.00;7.60;;;27.80;80.50;;;;;;3577867;40;20036;-78
2021/06/28 12:17:14;;;;;;;14.07;7.68;;;27.60;81.90;;;;;;3573467;40;20044;-78
2021/06/28 12:19:52;;;;;;;11.18;5.80;;;27.50;83.20;;;;;;3574104;40;20182;-78
2021/06/28 12:22:21;;;;;;;10.23;5.78;;;27.70;84.20;;;;;;3583105;40;20048;-80
2021/06/28 12:24:49;;;;;;;8.10;5.32;;;28.20;83.40;;;;;;3585127;40;20068;-78
2021/06/28 12:27:20;;;;;;;12.38;6.05;;;28.60;81.80;;;;;;3584639;40;20044;-78
2021/06/28 12:29:48;;;;;;;11.93;6.63;;;28.70;81.20;;;;;;3577553;40;20041;-79
2021/06/28 12:32:34;;;;;;;9.43;6.68;;;28.80;80.30;;;;;;3584100;40;20246;-78
2021/06/28 12:35:06;;;;;;;10.27;7.32;;;28.70;77.20;;;;;;3583690;40;20372;-79
2021/06/28 12:37:35;;;;;;;12.77;6.97;;;28.50;79.80;;;;;;3576398;40;20056;-79
2021/06/28 12:40:18;;;;;;;14.20;9.73;;;28.40;81.00;;;;;;3573296;40;20056;-78
2021/06/28 12:42:47;;;;;;;11.13;7.82;;;28.30;76.00;;;;;;3586147;40;20220;-78
2021/06/28 12:45:19;;;;;;;8.80;7.65;;;27.90;80.00;;;;;;3579879;40;20077;-78
2021/06/28 12:47:50;;;;;;;10.77;7.65;;;27.70;80.20;;;;;;3583276;40;20032;-78
2021/06/28 12:50:19;;;;;;;10.85;6.60;;;27.60;81.10;;;;;;3581471;40;20101;-78
2021/06/28 12:52:45;;;;;;;8.98;6.25;;;27.60;82.50;;;;;;3574794;40;20076;-78
2021/06/28 12:55:28;;;;;;;15.20;5.50;;;27.90;82.50;;;;;;3582845;40;20041;-79